Terminal Aerodrome Forecast
Issued by NWS

Home | Current Version | Previous Version | Text Only | Print | Product List | Glossary On
Versions: 1 2 3 4 5 6 7 8 9 10 11 12 13 14 15 16 17 18 19 20 21
996
FTUS46 KLOX 122354
TAFOXR
TAF
KOXR 122354Z 1300/1324 29008KT 4SM FU SCT060 SCT250
     FM130300 VRB03KT 4SM FU SCT060 SCT250
     FM130800 06008KT 6SM FU SCT250
     FM132100 28008KT 4SM FU SCT045 SCT250=

USA.gov is the U.S. government's official web portal to all federal, state and local government web resources and services.